sensor_id;sensor_type;location;lat;lon;timestamp;P1;durP1;ratioP1;P2;durP2;ratioP2
26478;SDS011;14163;-26.142;27.992;2023-12-20T00:01:14;27.47;;;24.87;;
26478;SDS011;14163;-26.142;27.992;2023-12-20T00:03:44;26.60;;;24.20;;
26478;SDS011;14163;-26.142;27.992;2023-12-20T00:06:13;27.30;;;24.73;;
26478;SDS011;14163;-26.142;27.992;2023-12-20T00:08:42;29.47;;;26.77;;
26478;SDS011;14163;-26.142;27.992;2023-12-20T00:11:13;30.90;;;27.70;;
26478;SDS011;14163;-26.142;27.992;2023-12-20T00:13:42;28.43;;;25.77;;
26478;SDS011;14163;-26.142;27.992;2023-12-20T00:16:11;26.87;;;24.10;;
26478;SDS011;14163;-26.142;27.992;2023-12-20T00:18:40;27.80;;;24.90;;
26478;SDS011;14163;-26.142;27.992;2023-12-20T00:21:09;26.77;;;24.17;;
26478;SDS011;14163;-26.142;27.992;2023-12-20T00:23:38;25.93;;;23.63;;
26478;SDS011;14163;-26.142;27.992;2023-12-20T00:26:08;26.87;;;24.47;;
26478;SDS011;14163;-26.142;27.992;2023-12-20T00:28:38;27.70;;;25.00;;
26478;SDS011;14163;-26.142;27.992;2023-12-20T00:31:08;23.40;;;21.30;;
26478;SDS011;14163;-26.142;27.992;2023-12-20T00:33:37;24.77;;;22.57;;
26478;SDS011;14163;-26.142;27.992;2023-12-20T00:36:09;23.67;;;21.40;;
26478;SDS011;14163;-26.142;27.992;2023-12-20T00:38:38;24.93;;;22.57;;
26478;SDS011;14163;-26.142;27.992;2023-12-20T00:41:07;22.90;;;21.00;;
26478;SDS011;14163;-26.142;27.992;2023-12-20T00:43:38;22.50;;;20.53;;
26478;SDS011;14163;-26.142;27.992;2023-12-20T00:46:07;22.27;;;20.17;;
26478;SDS011;14163;-26.142;27.992;2023-12-20T00:48:36;22.83;;;20.90;;
26478;SDS011;14163;-26.142;27.992;2023-12-20T00:51:07;24.40;;;22.30;;
26478;SDS011;14163;-26.142;27.992;2023-12-20T00:53:37;26.60;;;24.20;;
26478;SDS011;14163;-26.142;27.992;2023-12-20T00:56:06;28.63;;;26.07;;
26478;SDS011;14163;-26.142;27.992;2023-12-20T00:58:35;25.20;;;22.90;;
26478;SDS011;14163;-26.142;27.992;2023-12-20T01:01:06;24.30;;;22.10;;
26478;SDS011;14163;-26.142;27.992;2023-12-20T01:03:35;24.70;;;22.70;;
26478;SDS011;14163;-26.142;27.992;2023-12-20T01:06:04;26.97;;;24.63;;
26478;SDS011;14163;-26.142;27.992;2023-12-20T01:08:33;23.90;;;21.73;;
26478;SDS011;14163;-26.142;27.992;2023-12-20T01:11:03;24.30;;;22.20;;
26478;SDS011;14163;-26.142;27.992;2023-12-20T01:13:33;25.70;;;23.27;;
26478;SDS011;14163;-26.142;27.992;2023-12-20T01:16:04;23.60;;;21.40;;
26478;SDS011;14163;-26.142;27.992;2023-12-20T01:18:34;22.00;;;20.00;;
26478;SDS011;14163;-26.142;27.992;2023-12-20T01:21:04;21.47;;;19.60;;
26478;SDS011;14163;-26.142;27.992;2023-12-20T01:23:33;27.33;;;24.73;;
26478;SDS011;14163;-26.142;27.992;2023-12-20T01:26:02;24.60;;;22.17;;
26478;SDS011;14163;-26.142;27.992;2023-12-20T01:28:32;23.20;;;21.20;;
26478;SDS011;14163;-26.142;27.992;2023-12-20T01:31:01;23.67;;;21.37;;
26478;SDS011;14163;-26.142;27.992;2023-12-20T01:33:32;24.10;;;22.00;;
26478;SDS011;14163;-26.142;27.992;2023-12-20T01:36:01;24.37;;;21.97;;
26478;SDS011;14163;-26.142;27.992;2023-12-20T01:38:30;26.30;;;23.80;;
26478;SDS011;14163;-26.142;27.992;2023-12-20T01:40:59;24.70;;;22.50;;
26478;SDS011;14163;-26.142;27.992;2023-12-20T01:43:29;24.07;;;21.70;;
26478;SDS011;14163;-26.142;27.992;2023-12-20T01:45:58;22.10;;;20.10;;
26478;SDS011;14163;-26.142;27.992;2023-12-20T01:48:30;23.33;;;21.13;;
26478;SDS011;14163;-26.142;27.992;2023-12-20T01:50:59;24.07;;;21.70;;
26478;SDS011;14163;-26.142;27.992;2023-12-20T01:53:29;22.73;;;20.70;;
26478;SDS011;14163;-26.142;27.992;2023-12-20T01:55:59;21.07;;;19.00;;
26478;SDS011;14163;-26.142;27.992;2023-12-20T01:58:29;22.20;;;20.00;;
26478;SDS011;14163;-26.142;27.992;2023-12-20T02:00:58;19.67;;;17.77;;
26478;SDS011;14163;-26.142;27.992;2023-12-20T02:03:28;20.10;;;18.30;;
26478;SDS011;14163;-26.142;27.992;2023-12-20T02:05:58;19.97;;;18.17;;
26478;SDS011;14163;-26.142;27.992;2023-12-20T02:08:28;19.27;;;17.30;;
26478;SDS011;14163;-26.142;27.992;2023-12-20T02:10:57;19.27;;;17.37;;
26478;SDS011;14163;-26.142;27.992;2023-12-20T02:13:26;20.57;;;18.57;;
26478;SDS011;14163;-26.142;27.992;2023-12-20T02:15:55;17.43;;;15.73;;
26478;SDS011;14163;-26.142;27.992;2023-12-20T02:18:25;22.40;;;16.97;;
26478;SDS011;14163;-26.142;27.992;2023-12-20T02:20:56;18.53;;;16.70;;
26478;SDS011;14163;-26.142;27.992;2023-12-20T02:23:26;18.30;;;16.60;;
26478;SDS011;14163;-26.142;27.992;2023-12-20T02:25:56;18.20;;;16.50;;
26478;SDS011;14163;-26.142;27.992;2023-12-20T02:28:25;18.17;;;16.57;;
26478;SDS011;14163;-26.142;27.992;2023-12-20T02:30:54;14.47;;;13.27;;
26478;SDS011;14163;-26.142;27.992;2023-12-20T02:33:23;17.20;;;15.60;;
26478;SDS011;14163;-26.142;27.992;2023-12-20T02:35:52;18.77;;;16.93;;
26478;SDS011;14163;-26.142;27.992;2023-12-20T02:38:22;17.57;;;15.90;;
26478;SDS011;14163;-26.142;27.992;2023-12-20T02:40:52;17.20;;;14.57;;
26478;SDS011;14163;-26.142;27.992;2023-12-20T02:43:21;17.30;;;15.80;;
26478;SDS011;14163;-26.142;27.992;2023-12-20T02:45:51;17.80;;;16.10;;
26478;SDS011;14163;-26.142;27.992;2023-12-20T02:48:20;17.57;;;15.73;;
26478;SDS011;14163;-26.142;27.992;2023-12-20T02:50:49;17.17;;;15.53;;
26478;SDS011;14163;-26.142;27.992;2023-12-20T02:53:18;17.67;;;15.87;;
26478;SDS011;14163;-26.142;27.992;2023-12-20T02:55:47;17.13;;;15.63;;
26478;SDS011;14163;-26.142;27.992;2023-12-20T02:58:18;17.77;;;15.87;;
26478;SDS011;14163;-26.142;27.992;2023-12-20T03:00:47;17.00;;;15.40;;
26478;SDS011;14163;-26.142;27.992;2023-12-20T03:03:17;17.00;;;15.50;;
26478;SDS011;14163;-26.142;27.992;2023-12-20T03:05:46;15.20;;;13.80;;
26478;SDS011;14163;-26.142;27.992;2023-12-20T03:08:15;14.93;;;13.53;;
26478;SDS011;14163;-26.142;27.992;2023-12-20T03:10:44;16.40;;;14.67;;
26478;SDS011;14163;-26.142;27.992;2023-12-20T03:13:13;14.67;;;13.27;;
26478;SDS011;14163;-26.142;27.992;2023-12-20T03:15:44;13.90;;;12.57;;
26478;SDS011;14163;-26.142;27.992;2023-12-20T03:18:13;14.17;;;12.67;;
26478;SDS011;14163;-26.142;27.992;2023-12-20T03:20:42;14.53;;;13.23;;
26478;SDS011;14163;-26.142;27.992;2023-12-20T03:23:13;13.53;;;12.23;;
26478;SDS011;14163;-26.142;27.992;2023-12-20T03:25:42;14.50;;;13.03;;
26478;SDS011;14163;-26.142;27.992;2023-12-20T03:28:11;14.00;;;12.50;;
26478;SDS011;14163;-26.142;27.992;2023-12-20T03:30:45;12.70;;;11.60;;
26478;SDS011;14163;-26.142;27.992;2023-12-20T03:33:14;13.87;;;12.40;;
26478;SDS011;14163;-26.142;27.992;2023-12-20T03:35:43;12.47;;;11.17;;
26478;SDS011;14163;-26.142;27.992;2023-12-20T03:38:12;12.83;;;11.63;;
26478;SDS011;14163;-26.142;27.992;2023-12-20T03:40:41;10.83;;;9.83;;
26478;SDS011;14163;-26.142;27.992;2023-12-20T03:43:10;10.97;;;9.97;;
26478;SDS011;14163;-26.142;27.992;2023-12-20T03:45:39;13.87;;;10.93;;
26478;SDS011;14163;-26.142;27.992;2023-12-20T03:48:11;9.57;;;8.63;;
26478;SDS011;14163;-26.142;27.992;2023-12-20T03:50:40;11.73;;;10.73;;
26478;SDS011;14163;-26.142;27.992;2023-12-20T03:53:09;11.33;;;10.23;;
26478;SDS011;14163;-26.142;27.992;2023-12-20T03:55:38;10.73;;;9.70;;
26478;SDS011;14163;-26.142;27.992;2023-12-20T03:58:07;11.40;;;10.17;;
26478;SDS011;14163;-26.142;27.992;2023-12-20T04:00:36;11.40;;;10.23;;
26478;SDS011;14163;-26.142;27.992;2023-12-20T04:03:06;12.57;;;11.40;;
26478;SDS011;14163;-26.142;27.992;2023-12-20T04:05:40;10.13;;;9.10;;
26478;SDS011;14163;-26.142;27.992;2023-12-20T04:08:09;8.83;;;8.03;;
26478;SDS011;14163;-26.142;27.992;2023-12-20T04:10:38;7.67;;;6.97;;
26478;SDS011;14163;-26.142;27.992;2023-12-20T04:13:08;9.00;;;7.03;;
26478;SDS011;14163;-26.142;27.992;2023-12-20T04:15:37;7.13;;;6.43;;
26478;SDS011;14163;-26.142;27.992;2023-12-20T04:18:06;7.50;;;6.10;;
26478;SDS011;14163;-26.142;27.992;2023-12-20T04:20:35;7.70;;;6.97;;
26478;SDS011;14163;-26.142;27.992;2023-12-20T04:23:06;7.43;;;6.47;;
26478;SDS011;14163;-26.142;27.992;2023-12-20T04:25:35;8.57;;;7.67;;
26478;SDS011;14163;-26.142;27.992;2023-12-20T04:28:04;8.10;;;7.40;;
26478;SDS011;14163;-26.142;27.992;2023-12-20T04:30:34;6.80;;;6.27;;
26478;SDS011;14163;-26.142;27.992;2023-12-20T04:33:03;8.33;;;7.37;;
26478;SDS011;14163;-26.142;27.992;2023-12-20T04:35:32;8.47;;;7.77;;
26478;SDS011;14163;-26.142;27.992;2023-12-20T04:38:01;9.23;;;7.80;;
26478;SDS011;14163;-26.142;27.992;2023-12-20T04:40:32;8.57;;;7.57;;
26478;SDS011;14163;-26.142;27.992;2023-12-20T04:43:02;8.33;;;7.70;;
26478;SDS011;14163;-26.142;27.992;2023-12-20T04:45:32;8.53;;;7.70;;
26478;SDS011;14163;-26.142;27.992;2023-12-20T04:48:02;7.43;;;6.83;;
26478;SDS011;14163;-26.142;27.992;2023-12-20T04:50:32;8.03;;;7.23;;
26478;SDS011;14163;-26.142;27.992;2023-12-20T04:53:01;6.90;;;6.30;;
26478;SDS011;14163;-26.142;27.992;2023-12-20T04:55:30;6.83;;;5.83;;
26478;SDS011;14163;-26.142;27.992;2023-12-20T04:58:01;8.50;;;7.13;;
26478;SDS011;14163;-26.142;27.992;2023-12-20T05:00:30;7.47;;;6.70;;
26478;SDS011;14163;-26.142;27.992;2023-12-20T05:02:59;6.20;;;5.60;;
26478;SDS011;14163;-26.142;27.992;2023-12-20T05:05:28;7.10;;;6.50;;
26478;SDS011;14163;-26.142;27.992;2023-12-20T05:07:57;6.73;;;6.23;;
26478;SDS011;14163;-26.142;27.992;2023-12-20T05:10:26;7.20;;;6.50;;
26478;SDS011;14163;-26.142;27.992;2023-12-20T05:12:57;7.60;;;7.00;;
26478;SDS011;14163;-26.142;27.992;2023-12-20T05:15:26;9.73;;;8.27;;
26478;SDS011;14163;-26.142;27.992;2023-12-20T05:17:55;9.90;;;8.90;;
26478;SDS011;14163;-26.142;27.992;2023-12-20T05:20:24;10.20;;;9.20;;
26478;SDS011;14163;-26.142;27.992;2023-12-20T05:22:54;11.83;;;10.63;;
26478;SDS011;14163;-26.142;27.992;2023-12-20T05:25:23;12.33;;;11.23;;
26478;SDS011;14163;-26.142;27.992;2023-12-20T05:27:52;11.47;;;10.47;;
26478;SDS011;14163;-26.142;27.992;2023-12-20T05:30:23;12.20;;;11.10;;
26478;SDS011;14163;-26.142;27.992;2023-12-20T05:32:52;15.93;;;14.33;;
26478;SDS011;14163;-26.142;27.992;2023-12-20T05:35:21;16.97;;;14.97;;
26478;SDS011;14163;-26.142;27.992;2023-12-20T05:37:50;14.93;;;13.50;;
26478;SDS011;14163;-26.142;27.992;2023-12-20T05:40:19;13.83;;;12.43;;
26478;SDS011;14163;-26.142;27.992;2023-12-20T05:42:49;13.23;;;12.00;;
26478;SDS011;14163;-26.142;27.992;2023-12-20T05:45:18;12.77;;;11.57;;
26478;SDS011;14163;-26.142;27.992;2023-12-20T05:47:49;12.63;;;11.43;;
26478;SDS011;14163;-26.142;27.992;2023-12-20T05:50:18;12.40;;;11.20;;
26478;SDS011;14163;-26.142;27.992;2023-12-20T05:52:47;13.17;;;11.87;;
26478;SDS011;14163;-26.142;27.992;2023-12-20T05:55:17;13.20;;;11.50;;
26478;SDS011;14163;-26.142;27.992;2023-12-20T05:57:46;11.50;;;10.40;;
26478;SDS011;14163;-26.142;27.992;2023-12-20T06:00:15;13.20;;;11.90;;
26478;SDS011;14163;-26.142;27.992;2023-12-20T06:02:45;10.77;;;9.87;;
26478;SDS011;14163;-26.142;27.992;2023-12-20T06:05:16;10.67;;;9.67;;
26478;SDS011;14163;-26.142;27.992;2023-12-20T06:07:45;11.13;;;9.93;;
26478;SDS011;14163;-26.142;27.992;2023-12-20T06:10:16;10.30;;;9.30;;
26478;SDS011;14163;-26.142;27.992;2023-12-20T06:12:45;12.20;;;10.70;;
26478;SDS011;14163;-26.142;27.992;2023-12-20T06:15:16;11.53;;;10.47;;
26478;SDS011;14163;-26.142;27.992;2023-12-20T06:17:45;13.70;;;10.97;;
26478;SDS011;14163;-26.142;27.992;2023-12-20T06:20:15;10.53;;;9.53;;
26478;SDS011;14163;-26.142;27.992;2023-12-20T06:22:45;10.43;;;9.43;;
26478;SDS011;14163;-26.142;27.992;2023-12-20T06:25:14;11.27;;;10.17;;
26478;SDS011;14163;-26.142;27.992;2023-12-20T06:27:43;11.17;;;9.80;;
26478;SDS011;14163;-26.142;27.992;2023-12-20T06:30:12;10.60;;;9.60;;
26478;SDS011;14163;-26.142;27.992;2023-12-20T06:32:41;10.67;;;9.77;;
26478;SDS011;14163;-26.142;27.992;2023-12-20T06:35:12;10.93;;;9.93;;
26478;SDS011;14163;-26.142;27.992;2023-12-20T06:37:43;11.40;;;10.30;;
26478;SDS011;14163;-26.142;27.992;2023-12-20T06:40:12;12.17;;;10.97;;
26478;SDS011;14163;-26.142;27.992;2023-12-20T06:42:41;11.87;;;10.77;;
26478;SDS011;14163;-26.142;27.992;2023-12-20T06:45:12;12.00;;;10.80;;
26478;SDS011;14163;-26.142;27.992;2023-12-20T06:47:41;10.87;;;9.87;;
26478;SDS011;14163;-26.142;27.992;2023-12-20T06:50:10;11.37;;;10.47;;
26478;SDS011;14163;-26.142;27.992;2023-12-20T06:52:41;11.27;;;10.30;;
26478;SDS011;14163;-26.142;27.992;2023-12-20T06:55:10;10.70;;;9.80;;
26478;SDS011;14163;-26.142;27.992;2023-12-20T06:57:40;11.20;;;10.23;;
26478;SDS011;14163;-26.142;27.992;2023-12-20T07:00:10;11.40;;;10.47;;
26478;SDS011;14163;-26.142;27.992;2023-12-20T07:02:40;10.20;;;9.30;;
26478;SDS011;14163;-26.142;27.992;2023-12-20T07:05:09;10.60;;;9.70;;
26478;SDS011;14163;-26.142;27.992;2023-12-20T07:07:38;11.37;;;9.73;;
26478;SDS011;14163;-26.142;27.992;2023-12-20T07:10:09;10.50;;;9.60;;
26478;SDS011;14163;-26.142;27.992;2023-12-20T07:12:38;11.60;;;10.70;;
26478;SDS011;14163;-26.142;27.992;2023-12-20T07:15:08;11.80;;;10.70;;
26478;SDS011;14163;-26.142;27.992;2023-12-20T07:17:37;11.70;;;10.60;;
26478;SDS011;14163;-26.142;27.992;2023-12-20T07:20:07;11.67;;;10.50;;
26478;SDS011;14163;-26.142;27.992;2023-12-20T07:22:36;10.80;;;9.50;;
26478;SDS011;14163;-26.142;27.992;2023-12-20T07:25:08;10.80;;;9.80;;
26478;SDS011;14163;-26.142;27.992;2023-12-20T07:27:37;10.33;;;9.33;;
26478;SDS011;14163;-26.142;27.992;2023-12-20T07:30:07;10.63;;;9.83;;
26478;SDS011;14163;-26.142;27.992;2023-12-20T07:32:37;13.37;;;10.40;;
26478;SDS011;14163;-26.142;27.992;2023-12-20T07:35:06;10.17;;;9.40;;
26478;SDS011;14163;-26.142;27.992;2023-12-20T07:37:35;11.17;;;10.23;;
26478;SDS011;14163;-26.142;27.992;2023-12-20T07:40:05;11.23;;;9.90;;
26478;SDS011;14163;-26.142;27.992;2023-12-20T07:42:36;11.20;;;10.20;;
26478;SDS011;14163;-26.142;27.992;2023-12-20T07:45:06;10.77;;;9.83;;
26478;SDS011;14163;-26.142;27.992;2023-12-20T07:47:36;10.40;;;9.50;;
26478;SDS011;14163;-26.142;27.992;2023-12-20T07:50:06;10.20;;;9.50;;
26478;SDS011;14163;-26.142;27.992;2023-12-20T07:52:35;10.47;;;9.67;;
26478;SDS011;14163;-26.142;27.992;2023-12-20T07:55:05;9.80;;;9.00;;
26478;SDS011;14163;-26.142;27.992;2023-12-20T07:57:36;10.23;;;9.43;;
26478;SDS011;14163;-26.142;27.992;2023-12-20T08:00:06;10.83;;;9.83;;
26478;SDS011;14163;-26.142;27.992;2023-12-20T08:02:35;11.10;;;10.20;;
26478;SDS011;14163;-26.142;27.992;2023-12-20T08:05:04;11.17;;;10.17;;
26478;SDS011;14163;-26.142;27.992;2023-12-20T08:07:34;10.87;;;9.83;;
26478;SDS011;14163;-26.142;27.992;2023-12-20T08:10:03;11.57;;;10.37;;
26478;SDS011;14163;-26.142;27.992;2023-12-20T08:12:36;13.10;;;11.87;;
26478;SDS011;14163;-26.142;27.992;2023-12-20T08:15:06;10.57;;;9.77;;
26478;SDS011;14163;-26.142;27.992;2023-12-20T08:17:36;12.70;;;10.20;;
26478;SDS011;14163;-26.142;27.992;2023-12-20T08:20:06;10.83;;;9.93;;
26478;SDS011;14163;-26.142;27.992;2023-12-20T08:22:35;12.20;;;11.20;;
26478;SDS011;14163;-26.142;27.992;2023-12-20T08:25:04;11.57;;;10.60;;
26478;SDS011;14163;-26.142;27.992;2023-12-20T08:27:36;12.50;;;11.40;;
26478;SDS011;14163;-26.142;27.992;2023-12-20T08:30:08;11.73;;;10.80;;
26478;SDS011;14163;-26.142;27.992;2023-12-20T08:32:38;11.10;;;10.10;;
26478;SDS011;14163;-26.142;27.992;2023-12-20T08:35:07;12.32;;;11.32;;
26478;SDS011;14163;-26.142;27.992;2023-12-20T08:37:36;11.67;;;10.67;;
26478;SDS011;14163;-26.142;27.992;2023-12-20T08:40:06;12.33;;;11.33;;
26478;SDS011;14163;-26.142;27.992;2023-12-20T08:42:37;12.77;;;11.37;;
26478;SDS011;14163;-26.142;27.992;2023-12-20T08:45:07;12.43;;;11.40;;
26478;SDS011;14163;-26.142;27.992;2023-12-20T08:47:36;12.93;;;11.80;;
26478;SDS011;14163;-26.142;27.992;2023-12-20T08:50:07;12.40;;;11.30;;
26478;SDS011;14163;-26.142;27.992;2023-12-20T08:52:36;11.67;;;10.67;;
26478;SDS011;14163;-26.142;27.992;2023-12-20T08:55:05;13.97;;;12.23;;
26478;SDS011;14163;-26.142;27.992;2023-12-20T08:57:37;14.27;;;12.97;;
26478;SDS011;14163;-26.142;27.992;2023-12-20T09:00:06;13.10;;;11.90;;
26478;SDS011;14163;-26.142;27.992;2023-12-20T09:02:36;13.47;;;11.30;;
26478;SDS011;14163;-26.142;27.992;2023-12-20T09:05:05;11.20;;;10.20;;
26478;SDS011;14163;-26.142;27.992;2023-12-20T09:07:35;11.90;;;10.90;;
26478;SDS011;14163;-26.142;27.992;2023-12-20T09:10:04;18.57;;;16.60;;
26478;SDS011;14163;-26.142;27.992;2023-12-20T09:12:34;12.93;;;11.73;;
26478;SDS011;14163;-26.142;27.992;2023-12-20T09:15:07;12.53;;;11.33;;
26478;SDS011;14163;-26.142;27.992;2023-12-20T09:17:36;11.60;;;10.70;;
26478;SDS011;14163;-26.142;27.992;2023-12-20T09:20:07;12.73;;;11.53;;
26478;SDS011;14163;-26.142;27.992;2023-12-20T09:22:38;11.87;;;10.90;;
26478;SDS011;14163;-26.142;27.992;2023-12-20T09:25:08;11.17;;;10.20;;
26478;SDS011;14163;-26.142;27.992;2023-12-20T09:27:38;10.50;;;9.60;;
26478;SDS011;14163;-26.142;27.992;2023-12-20T09:30:09;12.30;;;11.20;;
26478;SDS011;14163;-26.142;27.992;2023-12-20T09:32:38;11.23;;;10.33;;
26478;SDS011;14163;-26.142;27.992;2023-12-20T09:35:08;10.90;;;10.00;;
26478;SDS011;14163;-26.142;27.992;2023-12-20T09:37:37;10.80;;;10.00;;
26478;SDS011;14163;-26.142;27.992;2023-12-20T09:40:07;11.73;;;10.63;;
26478;SDS011;14163;-26.142;27.992;2023-12-20T09:42:42;11.90;;;10.80;;
26478;SDS011;14163;-26.142;27.992;2023-12-20T09:45:19;11.83;;;10.73;;
26478;SDS011;14163;-26.142;27.992;2023-12-20T09:47:49;11.33;;;10.43;;
26478;SDS011;14163;-26.142;27.992;2023-12-20T09:50:20;12.27;;;11.33;;
26478;SDS011;14163;-26.142;27.992;2023-12-20T09:52:50;11.80;;;10.90;;
26478;SDS011;14163;-26.142;27.992;2023-12-20T09:55:19;12.10;;;11.10;;
26478;SDS011;14163;-26.142;27.992;2023-12-20T09:57:49;12.33;;;11.30;;
26478;SDS011;14163;-26.142;27.992;2023-12-20T10:00:20;16.50;;;15.03;;
26478;SDS011;14163;-26.142;27.992;2023-12-20T10:02:49;13.13;;;12.03;;
26478;SDS011;14163;-26.142;27.992;2023-12-20T10:05:26;13.00;;;11.80;;
26478;SDS011;14163;-26.142;27.992;2023-12-20T10:07:56;12.77;;;11.67;;
26478;SDS011;14163;-26.142;27.992;2023-12-20T10:10:25;13.27;;;12.20;;
26478;SDS011;14163;-26.142;27.992;2023-12-20T10:13:01;13.00;;;11.90;;
26478;SDS011;14163;-26.142;27.992;2023-12-20T10:15:34;13.20;;;12.10;;
26478;SDS011;14163;-26.142;27.992;2023-12-20T10:18:04;13.00;;;11.90;;
26478;SDS011;14163;-26.142;27.992;2023-12-20T10:20:34;13.53;;;12.37;;
26478;SDS011;14163;-26.142;27.992;2023-12-20T10:23:03;13.23;;;12.13;;
26478;SDS011;14163;-26.142;27.992;2023-12-20T10:25:32;14.07;;;12.87;;
26478;SDS011;14163;-26.142;27.992;2023-12-20T10:28:10;15.47;;;14.10;;
26478;SDS011;14163;-26.142;27.992;2023-12-20T10:30:42;12.93;;;11.83;;
26478;SDS011;14163;-26.142;27.992;2023-12-20T10:33:11;13.20;;;12.10;;
26478;SDS011;14163;-26.142;27.992;2023-12-20T10:35:41;12.87;;;11.53;;
26478;SDS011;14163;-26.142;27.992;2023-12-20T10:38:10;13.80;;;12.63;;
26478;SDS011;14163;-26.142;27.992;2023-12-20T10:40:40;14.90;;;13.53;;
26478;SDS011;14163;-26.142;27.992;2023-12-20T10:43:10;14.70;;;13.50;;
26478;SDS011;14163;-26.142;27.992;2023-12-20T10:45:40;16.10;;;14.40;;
26478;SDS011;14163;-26.142;27.992;2023-12-20T10:48:12;16.70;;;15.13;;
26478;SDS011;14163;-26.142;27.992;2023-12-20T10:50:41;14.10;;;12.80;;
26478;SDS011;14163;-26.142;27.992;2023-12-20T10:53:10;16.40;;;14.90;;
26478;SDS011;14163;-26.142;27.992;2023-12-20T10:55:41;15.30;;;14.00;;
26478;SDS011;14163;-26.142;27.992;2023-12-20T10:58:12;16.27;;;14.77;;
26478;SDS011;14163;-26.142;27.992;2023-12-20T11:00:43;16.43;;;15.00;;
26478;SDS011;14163;-26.142;27.992;2023-12-20T11:03:15;16.60;;;15.03;;
26478;SDS011;14163;-26.142;27.992;2023-12-20T11:05:51;17.10;;;15.40;;
26478;SDS011;14163;-26.142;27.992;2023-12-20T11:08:26;17.50;;;15.67;;
26478;SDS011;14163;-26.142;27.992;2023-12-20T11:11:08;16.90;;;15.50;;
26478;SDS011;14163;-26.142;27.992;2023-12-20T11:13:44;17.27;;;15.67;;
26478;SDS011;14163;-26.142;27.992;2023-12-20T11:16:23;16.90;;;15.30;;
26478;SDS011;14163;-26.142;27.992;2023-12-20T11:18:52;16.73;;;15.13;;
26478;SDS011;14163;-26.142;27.992;2023-12-20T11:21:22;16.37;;;14.43;;
26478;SDS011;14163;-26.142;27.992;2023-12-20T11:23:51;16.60;;;15.07;;
26478;SDS011;14163;-26.142;27.992;2023-12-20T11:26:22;15.90;;;14.40;;
26478;SDS011;14163;-26.142;27.992;2023-12-20T11:29:02;16.83;;;15.23;;
26478;SDS011;14163;-26.142;27.992;2023-12-20T11:32:01;16.60;;;15.00;;
26478;SDS011;14163;-26.142;27.992;2023-12-20T11:34:33;18.13;;;16.33;;
26478;SDS011;14163;-26.142;27.992;2023-12-20T11:37:04;18.00;;;16.20;;
26478;SDS011;14163;-26.142;27.992;2023-12-20T11:39:35;18.10;;;15.67;;
26478;SDS011;14163;-26.142;27.992;2023-12-20T11:42:05;15.57;;;14.07;;
26478;SDS011;14163;-26.142;27.992;2023-12-20T11:44:35;17.30;;;15.50;;
26478;SDS011;14163;-26.142;27.992;2023-12-20T11:47:06;17.10;;;15.40;;
26478;SDS011;14163;-26.142;27.992;2023-12-20T11:49:37;18.53;;;16.73;;
26478;SDS011;14163;-26.142;27.992;2023-12-20T11:52:06;17.17;;;15.43;;
26478;SDS011;14163;-26.142;27.992;2023-12-20T11:54:36;15.27;;;13.77;;
26478;SDS011;14163;-26.142;27.992;2023-12-20T11:57:05;16.43;;;14.77;;
26478;SDS011;14163;-26.142;27.992;2023-12-20T11:59:34;18.00;;;15.80;;
26478;SDS011;14163;-26.142;27.992;2023-12-20T12:02:04;17.37;;;15.73;;
26478;SDS011;14163;-26.142;27.992;2023-12-20T12:04:35;18.90;;;16.40;;
26478;SDS011;14163;-26.142;27.992;2023-12-20T12:07:04;18.50;;;16.80;;
26478;SDS011;14163;-26.142;27.992;2023-12-20T12:09:33;20.93;;;16.80;;
26478;SDS011;14163;-26.142;27.992;2023-12-20T12:12:03;18.50;;;16.63;;
26478;SDS011;14163;-26.142;27.992;2023-12-20T12:14:33;17.90;;;16.30;;
26478;SDS011;14163;-26.142;27.992;2023-12-20T12:17:02;16.90;;;15.33;;
26478;SDS011;14163;-26.142;27.992;2023-12-20T12:19:34;16.47;;;14.97;;
26478;SDS011;14163;-26.142;27.992;2023-12-20T12:22:06;17.70;;;16.10;;
26478;SDS011;14163;-26.142;27.992;2023-12-20T12:24:38;15.60;;;14.20;;
26478;SDS011;14163;-26.142;27.992;2023-12-20T12:27:07;16.50;;;15.10;;
26478;SDS011;14163;-26.142;27.992;2023-12-20T12:29:37;15.67;;;14.27;;
26478;SDS011;14163;-26.142;27.992;2023-12-20T12:32:06;16.20;;;14.60;;
26478;SDS011;14163;-26.142;27.992;2023-12-20T12:34:38;18.57;;;16.80;;
26478;SDS011;14163;-26.142;27.992;2023-12-20T12:37:08;20.43;;;18.43;;
26478;SDS011;14163;-26.142;27.992;2023-12-20T12:39:38;19.07;;;17.37;;
26478;SDS011;14163;-26.142;27.992;2023-12-20T12:42:08;19.07;;;17.27;;
26478;SDS011;14163;-26.142;27.992;2023-12-20T12:44:37;18.47;;;16.40;;
26478;SDS011;14163;-26.142;27.992;2023-12-20T12:47:06;19.37;;;17.47;;
26478;SDS011;14163;-26.142;27.992;2023-12-20T12:49:38;18.03;;;16.20;;
26478;SDS011;14163;-26.142;27.992;2023-12-20T12:52:09;20.53;;;17.83;;
26478;SDS011;14163;-26.142;27.992;2023-12-20T12:54:38;19.00;;;17.23;;
26478;SDS011;14163;-26.142;27.992;2023-12-20T12:57:08;19.30;;;17.60;;
26478;SDS011;14163;-26.142;27.992;2023-12-20T12:59:37;18.90;;;17.20;;
26478;SDS011;14163;-26.142;27.992;2023-12-20T13:02:06;18.30;;;16.80;;
26478;SDS011;14163;-26.142;27.992;2023-12-20T13:04:36;18.10;;;16.50;;
26478;SDS011;14163;-26.142;27.992;2023-12-20T13:07:06;20.90;;;18.90;;
26478;SDS011;14163;-26.142;27.992;2023-12-20T13:09:37;19.30;;;17.40;;
26478;SDS011;14163;-26.142;27.992;2023-12-20T13:12:06;19.70;;;17.80;;
26478;SDS011;14163;-26.142;27.992;2023-12-20T13:14:36;18.03;;;16.33;;
26478;SDS011;14163;-26.142;27.992;2023-12-20T13:17:06;17.47;;;15.80;;
26478;SDS011;14163;-26.142;27.992;2023-12-20T13:19:35;21.20;;;19.50;;
26478;SDS011;14163;-26.142;27.992;2023-12-20T13:22:06;135.77;;;87.33;;
26478;SDS011;14163;-26.142;27.992;2023-12-20T13:24:35;22.03;;;20.03;;
26478;SDS011;14163;-26.142;27.992;2023-12-20T13:27:04;16.63;;;15.13;;
26478;SDS011;14163;-26.142;27.992;2023-12-20T13:29:33;22.30;;;20.50;;
26478;SDS011;14163;-26.142;27.992;2023-12-20T13:32:02;18.23;;;16.63;;
26478;SDS011;14163;-26.142;27.992;2023-12-20T13:34:32;17.90;;;16.20;;
26478;SDS011;14163;-26.142;27.992;2023-12-20T13:37:03;17.23;;;15.73;;
26478;SDS011;14163;-26.142;27.992;2023-12-20T13:39:32;19.10;;;17.20;;
26478;SDS011;14163;-26.142;27.992;2023-12-20T13:42:01;17.57;;;15.97;;
26478;SDS011;14163;-26.142;27.992;2023-12-20T13:44:31;15.20;;;13.80;;
26478;SDS011;14163;-26.142;27.992;2023-12-20T13:47:00;15.17;;;13.90;;
26478;SDS011;14163;-26.142;27.992;2023-12-20T13:49:29;16.83;;;15.43;;
26478;SDS011;14163;-26.142;27.992;2023-12-20T13:51:58;14.27;;;12.87;;
26478;SDS011;14163;-26.142;27.992;2023-12-20T13:54:31;14.67;;;13.47;;
26478;SDS011;14163;-26.142;27.992;2023-12-20T13:57:00;14.23;;;13.10;;
26478;SDS011;14163;-26.142;27.992;2023-12-20T13:59:30;15.50;;;14.27;;
26478;SDS011;14163;-26.142;27.992;2023-12-20T14:02:01;15.40;;;14.10;;
26478;SDS011;14163;-26.142;27.992;2023-12-20T14:04:30;13.50;;;12.37;;
26478;SDS011;14163;-26.142;27.992;2023-12-20T14:06:59;15.67;;;14.30;;
26478;SDS011;14163;-26.142;27.992;2023-12-20T14:09:28;13.20;;;12.20;;
26478;SDS011;14163;-26.142;27.992;2023-12-20T14:11:59;15.40;;;13.70;;
26478;SDS011;14163;-26.142;27.992;2023-12-20T14:14:28;13.97;;;12.87;;
26478;SDS011;14163;-26.142;27.992;2023-12-20T14:16:57;14.97;;;13.77;;